createdAt,value
2023-03-01T00:01:22.340Z,0.60
2023-03-01T00:03:50.330Z,0.50
2023-03-01T00:06:18.040Z,0.63
2023-03-01T00:08:45.207Z,0.40
2023-03-01T00:11:21.407Z,0.50
2023-03-01T00:13:49.808Z,0.47
2023-03-01T00:16:19.952Z,0.73
2023-03-01T00:18:47.542Z,0.97
2023-03-01T00:21:15.377Z,0.50
2023-03-01T00:23:42.594Z,0.50
2023-03-01T00:26:13.544Z,0.60
2023-03-01T00:28:40.714Z,0.70
2023-03-01T00:31:14.377Z,0.70
2023-03-01T00:33:41.497Z,0.70
2023-03-01T00:36:09.579Z,0.40
2023-03-01T00:38:45.692Z,0.70
2023-03-01T00:41:17.408Z,0.90
2023-03-01T00:43:45.395Z,0.70
2023-03-01T00:46:21.047Z,0.43
2023-03-01T00:48:48.502Z,1.00
2023-03-01T00:51:22.427Z,0.77
2023-03-01T00:53:54.428Z,0.70
2023-03-01T00:56:21.740Z,0.63
2023-03-01T00:58:48.733Z,0.83
2023-03-01T01:01:28.539Z,0.50
2023-03-01T01:03:59.000Z,0.40
2023-03-01T01:06:36.234Z,0.53
2023-03-01T01:09:04.957Z,0.70
2023-03-01T01:11:32.401Z,0.73
2023-03-01T01:13:59.966Z,0.40
2023-03-01T01:16:28.997Z,0.37
2023-03-01T01:18:57.542Z,0.70
2023-03-01T01:21:25.919Z,0.50
2023-03-01T01:23:53.474Z,0.70
2023-03-01T01:26:29.724Z,1.00
2023-03-01T01:28:57.434Z,1.10
2023-03-01T01:31:26.163Z,0.60
2023-03-01T01:33:54.446Z,0.60
2023-03-01T01:36:21.992Z,0.57
2023-03-01T01:38:48.962Z,0.57
2023-03-01T01:41:17.104Z,0.30
2023-03-01T01:44:06.213Z,0.63
2023-03-01T01:46:35.113Z,0.80
2023-03-01T01:49:19.767Z,0.60
2023-03-01T01:51:49.645Z,0.43
2023-03-01T01:54:39.719Z,0.73
2023-03-01T01:57:13.215Z,0.73
2023-03-01T01:59:42.752Z,0.60
2023-03-01T02:02:09.739Z,0.57
2023-03-01T02:04:36.946Z,0.63
2023-03-01T02:07:19.080Z,0.70
2023-03-01T02:09:49.417Z,0.93
2023-03-01T02:12:19.092Z,0.60
2023-03-01T02:14:46.429Z,0.90
2023-03-01T02:17:15.638Z,0.60
2023-03-01T02:20:08.956Z,0.50
2023-03-01T02:22:38.222Z,0.50
2023-03-01T02:25:23.084Z,0.50
2023-03-01T02:28:06.012Z,0.63
2023-03-01T02:30:33.946Z,0.50
2023-03-01T02:33:03.896Z,0.40
2023-03-01T02:35:35.023Z,0.67
2023-03-01T02:38:02.808Z,0.60
2023-03-01T02:40:31.739Z,0.57
2023-03-01T02:42:59.959Z,0.50
2023-03-01T02:45:28.349Z,0.40
2023-03-01T02:47:59.044Z,0.97
2023-03-01T02:50:32.172Z,0.47
2023-03-01T02:53:11.262Z,0.80
2023-03-01T02:55:39.783Z,0.50
2023-03-01T02:58:07.326Z,0.70
2023-03-01T03:00:41.274Z,0.50
2023-03-01T03:03:08.711Z,0.50
2023-03-01T03:05:36.481Z,1.10
2023-03-01T03:08:04.557Z,0.60
2023-03-01T03:10:35.459Z,1.17
2023-03-01T03:13:05.907Z,0.83
2023-03-01T03:15:37.030Z,0.53
2023-03-01T03:18:07.112Z,0.60
2023-03-01T03:20:35.001Z,0.60
2023-03-01T03:23:02.262Z,0.80
2023-03-01T03:25:30.330Z,0.53
2023-03-01T03:27:58.888Z,0.50
2023-03-01T03:30:29.366Z,0.30
2023-03-01T03:32:57.100Z,0.40
2023-03-01T03:35:27.913Z,0.70
2023-03-01T03:38:03.848Z,0.60
2023-03-01T03:40:36.663Z,0.33
2023-03-01T03:43:06.046Z,0.73
2023-03-01T03:45:34.538Z,0.80
2023-03-01T03:48:02.651Z,0.43
2023-03-01T03:50:29.895Z,0.80
2023-03-01T03:52:57.099Z,0.20
2023-03-01T03:55:24.121Z,0.60
2023-03-01T03:57:55.075Z,0.70
2023-03-01T04:00:24.842Z,0.60
2023-03-01T04:02:52.538Z,0.50
2023-03-01T04:05:20.197Z,0.50
2023-03-01T04:07:47.210Z,0.63
2023-03-01T04:10:17.207Z,0.50
2023-03-01T04:12:44.812Z,0.60
2023-03-01T04:15:15.922Z,1.07
2023-03-01T04:17:48.097Z,0.40
2023-03-01T04:20:18.533Z,0.50
2023-03-01T04:22:48.742Z,0.50
2023-03-01T04:25:15.735Z,0.47
2023-03-01T04:27:42.764Z,0.57
2023-03-01T04:30:10.866Z,0.40
2023-03-01T04:32:38.139Z,0.73
2023-03-01T04:35:05.520Z,0.30
2023-03-01T04:37:32.745Z,0.77
2023-03-01T04:39:59.752Z,0.70
2023-03-01T04:42:26.681Z,0.30
2023-03-01T04:44:53.876Z,0.40
2023-03-01T04:47:20.854Z,0.60
2023-03-01T04:49:47.740Z,0.77
2023-03-01T04:52:14.680Z,0.50
2023-03-01T04:54:41.714Z,0.53
2023-03-01T04:57:08.651Z,0.40
2023-03-01T04:59:37.214Z,0.70
2023-03-01T05:02:04.267Z,0.50
2023-03-01T05:04:32.054Z,0.47
2023-03-01T05:07:00.129Z,0.50
2023-03-01T05:09:27.130Z,0.57
2023-03-01T05:11:54.002Z,0.30
2023-03-01T05:14:20.965Z,0.43
2023-03-01T05:16:47.881Z,0.60
2023-03-01T05:19:16.469Z,0.50
2023-03-01T05:22:02.524Z,0.50
2023-03-01T05:24:34.728Z,0.50
2023-03-01T05:27:02.677Z,0.37
2023-03-01T05:29:32.216Z,0.30
2023-03-01T05:32:02.024Z,0.27
2023-03-01T05:34:31.390Z,0.77
2023-03-01T05:36:58.986Z,0.40
2023-03-01T05:39:27.834Z,0.30
2023-03-01T05:41:59.957Z,0.17
2023-03-01T05:44:27.740Z,0.30
2023-03-01T05:46:55.479Z,0.50
2023-03-01T05:49:25.799Z,0.30
2023-03-01T05:51:54.362Z,0.20
2023-03-01T05:54:22.786Z,0.17
2023-03-01T05:56:49.873Z,0.40
2023-03-01T05:59:17.453Z,0.40
2023-03-01T06:01:44.787Z,0.30
2023-03-01T06:04:12.002Z,0.30
2023-03-01T06:06:39.119Z,0.27
2023-03-01T06:09:08.395Z,0.47
2023-03-01T06:11:36.824Z,0.30
2023-03-01T06:14:04.973Z,0.50
2023-03-01T06:16:32.367Z,0.40
2023-03-01T06:18:59.515Z,0.30
2023-03-01T06:21:26.729Z,0.50
2023-03-01T06:23:53.844Z,0.47
2023-03-01T06:26:20.842Z,0.43
2023-03-01T06:28:47.764Z,0.40
2023-03-01T06:31:15.035Z,0.47
2023-03-01T06:33:42.138Z,0.63
2023-03-01T06:36:10.513Z,0.30
2023-03-01T06:38:37.796Z,0.40
2023-03-01T06:41:05.117Z,0.30
2023-03-01T06:43:32.171Z,0.67
2023-03-01T06:45:59.207Z,0.40
2023-03-01T06:48:26.415Z,0.70
2023-03-01T06:50:53.536Z,0.60
2023-03-01T06:53:20.605Z,0.50
2023-03-01T06:55:47.540Z,0.50
2023-03-01T06:58:14.627Z,0.40
2023-03-01T07:00:42.000Z,0.23
2023-03-01T07:03:09.944Z,0.30
2023-03-01T07:05:36.969Z,4.83
2023-03-01T07:08:04.287Z,4.20
2023-03-01T07:10:31.452Z,3.87
2023-03-01T07:12:59.115Z,2.20
2023-03-01T07:15:27.698Z,2.47
2023-03-01T07:17:54.938Z,2.20
2023-03-01T07:20:25.647Z,1.33
2023-03-01T07:22:57.494Z,1.10
2023-03-01T07:25:24.562Z,0.93
2023-03-01T07:27:53.230Z,0.47
2023-03-01T07:30:21.199Z,0.60
2023-03-01T07:32:48.564Z,0.40
2023-03-01T07:35:16.010Z,0.43
2023-03-01T07:37:43.125Z,0.20
2023-03-01T07:40:11.214Z,0.43
2023-03-01T07:42:38.539Z,0.67
2023-03-01T07:45:07.314Z,0.60
2023-03-01T07:47:34.531Z,0.70
2023-03-01T07:50:02.235Z,0.60
2023-03-01T07:52:29.286Z,0.80
2023-03-01T07:54:56.243Z,0.93
2023-03-01T07:57:23.444Z,0.23
2023-03-01T07:59:50.588Z,0.40
2023-03-01T08:02:17.592Z,0.67
2023-03-01T08:04:44.493Z,0.57
2023-03-01T08:07:11.439Z,0.60
2023-03-01T08:09:38.770Z,0.70
2023-03-01T08:12:06.413Z,1.20
2023-03-01T08:14:33.953Z,0.90
2023-03-01T08:17:01.196Z,0.50
2023-03-01T08:19:29.339Z,0.40
2023-03-01T08:21:59.246Z,0.47
2023-03-01T08:24:26.477Z,0.50
2023-03-01T08:26:53.406Z,0.33
2023-03-01T08:29:20.579Z,0.50
2023-03-01T08:31:48.074Z,0.60
2023-03-01T08:34:17.229Z,0.30
2023-03-01T08:36:46.446Z,0.40
2023-03-01T08:39:16.280Z,0.30
2023-03-01T08:41:43.667Z,0.50
2023-03-01T08:44:12.579Z,0.37
2023-03-01T08:46:41.758Z,0.20
2023-03-01T08:49:17.616Z,0.37
2023-03-01T08:51:45.616Z,0.63
2023-03-01T08:54:19.131Z,0.67
2023-03-01T08:56:46.500Z,0.37
2023-03-01T08:59:15.316Z,0.57
2023-03-01T09:01:44.342Z,0.50
2023-03-01T09:04:12.704Z,0.47
2023-03-01T09:06:39.920Z,0.50
2023-03-01T09:09:07.185Z,0.37
2023-03-01T09:11:34.319Z,0.67
2023-03-01T09:14:01.244Z,0.50
2023-03-01T09:16:28.520Z,0.50
2023-03-01T09:18:55.834Z,0.50
2023-03-01T09:21:38.942Z,0.43
2023-03-01T09:24:12.826Z,0.50
2023-03-01T09:26:39.873Z,0.30
2023-03-01T09:29:06.784Z,0.60
2023-03-01T09:31:33.742Z,0.50
2023-03-01T09:34:00.651Z,0.60
2023-03-01T09:36:27.772Z,0.30
2023-03-01T09:38:55.975Z,0.77
2023-03-01T09:41:38.245Z,0.40
2023-03-01T09:44:35.453Z,0.73
2023-03-01T09:47:03.250Z,0.50
2023-03-01T09:49:36.131Z,0.70
2023-03-01T09:52:30.727Z,0.90
2023-03-01T09:55:00.393Z,0.73
2023-03-01T09:57:44.259Z,0.80
2023-03-01T10:00:11.635Z,0.50
2023-03-01T10:03:18.961Z,0.57
2023-03-01T10:06:27.574Z,0.40
2023-03-01T10:09:14.564Z,0.47
2023-03-01T10:11:52.769Z,0.30
2023-03-01T10:14:22.701Z,0.50
2023-03-01T10:17:20.969Z,0.50
2023-03-01T10:19:48.315Z,0.60
2023-03-01T10:22:29.462Z,0.40
2023-03-01T10:25:00.715Z,0.60
2023-03-01T10:27:40.657Z,0.33
2023-03-01T10:30:32.693Z,0.63
2023-03-01T10:33:00.393Z,0.30
2023-03-01T10:35:30.973Z,0.40
2023-03-01T10:38:12.772Z,0.40
2023-03-01T10:41:06.746Z,0.67
2023-03-01T10:43:48.744Z,0.33
2023-03-01T10:46:38.535Z,0.40
2023-03-01T10:49:23.165Z,0.50
2023-03-01T10:51:52.316Z,0.90
2023-03-01T10:54:32.426Z,0.37
2023-03-01T10:57:02.695Z,0.40
2023-03-01T10:59:35.215Z,0.40
2023-03-01T11:02:29.231Z,0.50
2023-03-01T11:05:18.515Z,0.40
2023-03-01T11:07:50.910Z,0.60
2023-03-01T11:10:23.987Z,0.37
2023-03-01T11:12:53.160Z,0.60
2023-03-01T11:15:29.059Z,0.30
2023-03-01T11:18:05.927Z,0.50
2023-03-01T11:20:40.273Z,0.43
2023-03-01T11:23:15.192Z,0.47
2023-03-01T11:26:11.500Z,0.73
2023-03-01T11:28:43.108Z,0.70
2023-03-01T11:31:16.442Z,0.30
2023-03-01T11:34:05.403Z,0.80
2023-03-01T11:36:57.719Z,0.40
2023-03-01T11:39:52.138Z,0.60
2023-03-01T11:42:35.917Z,0.40
2023-03-01T11:45:09.918Z,0.30
2023-03-01T11:47:54.656Z,0.37
2023-03-01T11:50:35.184Z,0.67
2023-03-01T11:53:05.199Z,0.50
2023-03-01T11:55:38.280Z,0.50
2023-03-01T11:58:18.434Z,0.43
2023-03-01T12:01:14.390Z,0.30
2023-03-01T12:03:47.269Z,0.50
2023-03-01T12:06:38.545Z,0.60
2023-03-01T12:09:18.454Z,0.37
2023-03-01T12:12:11.211Z,0.50
2023-03-01T12:15:10.152Z,0.50
2023-03-01T12:18:03.790Z,0.43
2023-03-01T12:21:03.608Z,0.50
2023-03-01T12:24:07.355Z,0.40
2023-03-01T12:26:40.993Z,0.30
2023-03-01T12:29:10.727Z,0.40
2023-03-01T12:32:09.396Z,1.27
2023-03-01T12:35:10.801Z,0.87
2023-03-01T12:37:42.467Z,0.40
2023-03-01T12:40:32.570Z,0.40
2023-03-01T12:43:30.985Z,0.40
2023-03-01T12:46:19.035Z,0.30
2023-03-01T12:49:11.005Z,0.27
2023-03-01T12:51:40.564Z,0.40
2023-03-01T12:54:21.888Z,0.47
2023-03-01T12:56:53.513Z,0.40
2023-03-01T12:59:58.554Z,0.43
2023-03-01T13:02:29.117Z,0.60
2023-03-01T13:05:31.545Z,0.40
2023-03-01T13:08:29.589Z,0.50
2023-03-01T13:11:02.576Z,0.20
2023-03-01T13:13:30.314Z,0.20
2023-03-01T13:15:58.268Z,0.50
2023-03-01T13:18:26.561Z,0.43
2023-03-01T13:21:02.045Z,0.60
2023-03-01T13:23:32.560Z,0.50
2023-03-01T13:26:09.770Z,0.50
2023-03-01T13:28:36.726Z,0.40
2023-03-01T13:31:05.990Z,0.30
2023-03-01T13:33:34.233Z,0.40
2023-03-01T13:36:02.520Z,0.50
2023-03-01T13:38:40.676Z,0.23
2023-03-01T13:41:08.244Z,0.30
2023-03-01T13:43:41.501Z,0.50
2023-03-01T13:46:26.731Z,0.30
2023-03-01T13:48:57.778Z,0.40
2023-03-01T13:51:27.666Z,0.30
2023-03-01T13:53:57.265Z,0.30
2023-03-01T13:56:28.937Z,0.30
2023-03-01T13:59:21.090Z,0.30
2023-03-01T14:02:01.585Z,0.20
2023-03-01T14:04:32.485Z,0.30
2023-03-01T14:07:21.348Z,0.30
2023-03-01T14:10:06.930Z,0.30
2023-03-01T14:12:36.719Z,0.30
2023-03-01T14:15:07.500Z,0.20
2023-03-01T14:18:02.872Z,0.30
2023-03-01T14:20:39.608Z,0.30
2023-03-01T14:23:13.836Z,0.40
2023-03-01T14:25:49.944Z,0.50
2023-03-01T14:28:22.957Z,0.50
2023-03-01T14:30:52.150Z,0.43
2023-03-01T14:33:21.067Z,0.50
2023-03-01T14:36:00.100Z,0.20
2023-03-01T14:38:38.502Z,0.03
2023-03-01T14:41:10.154Z,0.40
2023-03-01T14:43:43.850Z,0.63
2023-03-01T14:46:27.781Z,0.40
2023-03-01T14:48:59.615Z,0.33
2023-03-01T14:51:26.637Z,0.20
2023-03-01T14:53:53.789Z,0.33
2023-03-01T14:56:20.851Z,0.33
2023-03-01T14:58:52.154Z,0.17
2023-03-01T15:01:19.869Z,0.40
2023-03-01T15:03:49.537Z,0.20
2023-03-01T15:06:20.654Z,0.53
2023-03-01T15:08:51.457Z,0.30
2023-03-01T15:11:23.927Z,0.50
2023-03-01T15:13:51.476Z,0.20
2023-03-01T15:16:22.810Z,0.30
2023-03-01T15:18:56.184Z,0.40
2023-03-01T15:21:26.539Z,0.37
2023-03-01T15:24:06.571Z,0.33
2023-03-01T15:26:46.749Z,0.20
2023-03-01T15:29:20.005Z,0.40
2023-03-01T15:32:04.832Z,0.40
2023-03-01T15:34:33.274Z,0.37
2023-03-01T15:37:02.700Z,0.63
2023-03-01T15:39:38.349Z,0.30
2023-03-01T15:42:12.485Z,0.30
2023-03-01T15:44:45.788Z,0.50
2023-03-01T15:47:32.732Z,0.30
2023-03-01T15:50:01.847Z,0.40
2023-03-01T15:52:37.867Z,0.33
2023-03-01T15:55:15.127Z,0.40
2023-03-01T15:57:42.113Z,0.40
2023-03-01T16:00:14.557Z,0.80
2023-03-01T16:02:43.671Z,0.50
2023-03-01T16:05:22.438Z,0.57
2023-03-01T16:07:49.529Z,0.40
2023-03-01T16:10:17.253Z,0.53
2023-03-01T16:12:44.329Z,0.40
2023-03-01T16:15:29.451Z,0.30
2023-03-01T16:17:59.119Z,0.60
2023-03-01T16:20:29.070Z,0.40
2023-03-01T16:23:02.476Z,0.40
2023-03-01T16:25:30.948Z,0.77
2023-03-01T16:27:59.509Z,0.20
2023-03-01T16:30:26.546Z,0.47
2023-03-01T16:32:54.186Z,0.60
2023-03-01T16:35:22.560Z,0.53
2023-03-01T16:37:50.169Z,0.60
2023-03-01T16:40:27.822Z,0.40
2023-03-01T16:43:00.288Z,0.37
2023-03-01T16:45:36.189Z,0.73
2023-03-01T16:48:04.720Z,0.40
2023-03-01T16:50:31.845Z,0.40
2023-03-01T16:52:58.957Z,0.40
2023-03-01T16:55:25.987Z,0.30
2023-03-01T16:57:52.943Z,0.53
2023-03-01T17:00:20.296Z,0.30
2023-03-01T17:02:47.326Z,0.30
2023-03-01T17:05:14.387Z,0.40
2023-03-01T17:07:41.627Z,0.33
2023-03-01T17:10:11.313Z,0.20
2023-03-01T17:12:38.641Z,0.30
2023-03-01T17:15:07.456Z,0.60
2023-03-01T17:17:36.046Z,0.30
2023-03-01T17:20:04.952Z,0.27
2023-03-01T17:22:32.005Z,0.40
2023-03-01T17:24:59.183Z,0.20
2023-03-01T17:27:26.196Z,0.40
2023-03-01T17:29:53.154Z,0.30
2023-03-01T17:32:20.321Z,0.40
2023-03-01T17:34:47.260Z,0.30
2023-03-01T17:37:14.301Z,0.30
2023-03-01T17:39:41.675Z,0.50
2023-03-01T17:42:08.667Z,0.40
2023-03-01T17:44:35.793Z,0.53
2023-03-01T17:47:04.735Z,0.50
2023-03-01T17:49:32.282Z,0.50
2023-03-01T17:51:59.554Z,0.50
2023-03-01T17:54:26.768Z,0.60
2023-03-01T17:56:54.941Z,0.53
2023-03-01T17:59:22.188Z,0.63
2023-03-01T18:01:49.123Z,0.63
2023-03-01T18:04:16.067Z,0.50
2023-03-01T18:06:43.042Z,0.63
2023-03-01T18:09:10.086Z,0.60
2023-03-01T18:11:37.112Z,0.50
2023-03-01T18:14:04.669Z,0.57
2023-03-01T18:16:33.938Z,0.57
2023-03-01T18:19:02.029Z,0.70
2023-03-01T18:21:30.607Z,0.83
2023-03-01T18:23:59.750Z,0.70
2023-03-01T18:26:28.000Z,1.17
2023-03-01T18:28:58.268Z,0.50
2023-03-01T18:31:25.911Z,0.60
2023-03-01T18:33:57.610Z,0.70
2023-03-01T18:36:28.081Z,0.50
2023-03-01T18:38:56.603Z,0.50
2023-03-01T18:41:26.395Z,0.43
2023-03-01T18:43:54.466Z,0.70
2023-03-01T18:46:22.089Z,0.50
2023-03-01T18:48:49.670Z,0.30
2023-03-01T18:51:21.838Z,0.80
2023-03-01T18:53:48.847Z,0.50
2023-03-01T18:56:16.010Z,0.70
2023-03-01T18:58:43.441Z,0.53
2023-03-01T19:01:19.663Z,0.40
2023-03-01T19:03:47.174Z,0.60
2023-03-01T19:06:14.943Z,0.40
2023-03-01T19:08:44.306Z,0.47
2023-03-01T19:11:12.995Z,0.47
2023-03-01T19:13:41.163Z,0.60
2023-03-01T19:16:17.349Z,0.50
2023-03-01T19:18:50.752Z,0.30
2023-03-01T19:21:20.539Z,0.37
2023-03-01T19:23:49.129Z,0.20
2023-03-01T19:26:19.171Z,0.30
2023-03-01T19:28:46.962Z,0.40
2023-03-01T19:31:17.248Z,0.30
2023-03-01T19:33:44.444Z,0.23
2023-03-01T19:36:13.933Z,0.40
2023-03-01T19:38:42.933Z,0.30
2023-03-01T19:41:14.707Z,0.40
2023-03-01T19:43:43.106Z,0.20
2023-03-01T19:46:11.351Z,0.30
2023-03-01T19:48:40.440Z,0.10
2023-03-01T19:51:08.984Z,0.30
2023-03-01T19:53:38.055Z,0.40
2023-03-01T19:56:05.662Z,0.30
2023-03-01T19:58:33.055Z,0.43
2023-03-01T20:01:00.789Z,0.30
2023-03-01T20:03:35.930Z,0.30
2023-03-01T20:06:10.208Z,0.50
2023-03-01T20:08:37.137Z,0.40
2023-03-01T20:11:06.562Z,0.30
2023-03-01T20:13:34.229Z,0.40
2023-03-01T20:16:01.252Z,0.60
2023-03-01T20:18:28.665Z,0.47
2023-03-01T20:20:55.863Z,0.53
2023-03-01T20:23:23.017Z,0.50
2023-03-01T20:25:50.281Z,0.40
2023-03-01T20:28:18.849Z,0.37
2023-03-01T20:30:46.601Z,0.47
2023-03-01T20:33:13.552Z,0.47
2023-03-01T20:35:43.926Z,0.40
2023-03-01T20:38:10.941Z,0.50
2023-03-01T20:40:38.326Z,0.60
2023-03-01T20:43:05.389Z,0.53
2023-03-01T20:45:32.469Z,0.40
2023-03-01T20:47:59.473Z,0.30
2023-03-01T20:50:26.433Z,0.40
2023-03-01T20:52:53.365Z,0.50
2023-03-01T20:55:21.007Z,0.70
2023-03-01T20:57:47.997Z,0.57
2023-03-01T21:00:15.208Z,0.83
2023-03-01T21:02:42.509Z,0.37
2023-03-01T21:05:09.779Z,0.40
2023-03-01T21:07:36.744Z,0.40
2023-03-01T21:10:04.189Z,0.30
2023-03-01T21:12:31.458Z,0.30
2023-03-01T21:14:58.514Z,0.47
2023-03-01T21:17:25.432Z,0.67
2023-03-01T21:19:52.360Z,0.50
2023-03-01T21:22:19.408Z,0.43
2023-03-01T21:24:46.371Z,0.50
2023-03-01T21:27:13.445Z,0.40
2023-03-01T21:29:42.479Z,0.40
2023-03-01T21:32:10.672Z,0.50
2023-03-01T21:34:38.675Z,0.50
2023-03-01T21:37:06.645Z,0.37
2023-03-01T21:39:34.146Z,0.40
2023-03-01T21:42:03.039Z,0.50
2023-03-01T21:44:31.681Z,0.60
2023-03-01T21:46:59.212Z,0.50
2023-03-01T21:49:27.049Z,0.37
2023-03-01T21:51:54.017Z,0.30
2023-03-01T21:54:21.583Z,0.47
2023-03-01T21:56:49.551Z,0.50
2023-03-01T21:59:22.216Z,0.40
2023-03-01T22:01:51.440Z,0.33
2023-03-01T22:04:20.126Z,0.40
2023-03-01T22:06:47.552Z,0.60
2023-03-01T22:09:15.891Z,0.23
2023-03-01T22:11:48.779Z,0.40
2023-03-01T22:14:17.753Z,0.60
2023-03-01T22:16:45.768Z,0.50
2023-03-01T22:19:14.906Z,0.40
2023-03-01T22:21:43.984Z,0.40
2023-03-01T22:24:11.514Z,0.30
2023-03-01T22:26:41.698Z,0.40
2023-03-01T22:29:12.715Z,0.40
2023-03-01T22:31:40.384Z,0.40
2023-03-01T22:34:07.863Z,0.60
2023-03-01T22:36:35.476Z,0.43
2023-03-01T22:39:04.298Z,0.30
2023-03-01T22:41:35.269Z,0.50
2023-03-01T22:44:02.529Z,0.50
2023-03-01T22:46:30.353Z,0.47
2023-03-01T22:48:57.591Z,0.30
2023-03-01T22:51:31.174Z,0.30
2023-03-01T22:53:58.866Z,0.40
2023-03-01T22:56:31.192Z,0.30
2023-03-01T22:59:00.262Z,0.53
2023-03-01T23:01:27.719Z,0.50
2023-03-01T23:03:55.486Z,0.50
2023-03-01T23:06:23.238Z,0.40
2023-03-01T23:08:55.783Z,0.40
2023-03-01T23:11:24.609Z,0.40
2023-03-01T23:13:52.883Z,0.30
2023-03-01T23:16:26.482Z,0.40
2023-03-01T23:18:55.096Z,0.50
2023-03-01T23:21:22.183Z,0.40
2023-03-01T23:23:50.242Z,0.40
2023-03-01T23:26:18.824Z,0.23
2023-03-01T23:28:45.976Z,0.30
2023-03-01T23:31:14.898Z,0.30
2023-03-01T23:33:44.598Z,0.20
2023-03-01T23:36:18.491Z,0.30
2023-03-01T23:38:47.231Z,0.40
2023-03-01T23:41:17.576Z,0.30
2023-03-01T23:43:55.138Z,0.47
2023-03-01T23:46:24.115Z,0.30
2023-03-01T23:48:51.485Z,0.30
2023-03-01T23:51:19.098Z,0.20
2023-03-01T23:53:54.095Z,0.23
2023-03-01T23:56:26.821Z,0.23
2023-03-01T23:58:55.234Z,0.30
